Time;durP1;ratioP1;P1;durP2;ratioP2;P2;SDS_P1;SDS_P2;PMS_P1;PMS_P2;Temp;Humidity;BMP_temperature;BMP_pressure;BME280_temperature;BME280_humidity;BME280_pressure;Samples;Min_cycle;Max_cycle;Signal;HPM_P1;HPM_P2
2022/11/12 00:00:40;;;;;;;21.60;12.80;;;;;;;8.48;75.33;96150.81;5048986;28;20526;-70
2022/11/12 00:03:05;;;;;;;24.30;15.77;;;;;;;8.47;75.22;96149.16;5048095;28;20028;-70
2022/11/12 00:05:31;;;;;;;19.95;12.48;;;;;;;8.43;75.67;96145.88;5046358;28;20088;-70
2022/11/12 00:07:56;;;;;;;18.83;12.65;;;;;;;8.46;75.21;96142.28;5064460;28;20095;-70
2022/11/12 00:10:22;;;;;;;21.52;14.63;;;;;;;8.50;75.14;96130.84;5048869;28;20035;-70
2022/11/12 00:12:47;;;;;;;22.42;14.70;;;;;;;8.45;75.48;96123.31;5030067;28;20083;-70
2022/11/12 00:15:13;;;;;;;27.60;16.88;;;;;;;8.44;75.42;96132.03;5027244;28;20036;-70
2022/11/12 00:17:38;;;;;;;23.98;15.15;;;;;;;8.24;75.19;96108.88;5031692;28;20098;-70
2022/11/12 00:20:04;;;;;;;23.70;15.25;;;;;;;8.22;75.59;96121.09;5063876;28;20032;-70
2022/11/12 00:22:30;;;;;;;22.45;14.07;;;;;;;8.26;75.23;96127.78;5050135;28;20033;-70
2022/11/12 00:24:55;;;;;;;18.42;12.23;;;;;;;8.47;74.53;96131.03;5061563;28;20472;-70
2022/11/12 00:27:21;;;;;;;20.55;12.82;;;;;;;8.36;74.88;96121.19;5061672;28;20063;-70
2022/11/12 00:29:46;;;;;;;19.23;12.65;;;;;;;8.63;74.68;96134.44;5064468;28;20033;-70
2022/11/12 00:32:12;;;;;;;20.60;12.73;;;;;;;8.52;74.62;96128.16;5063095;28;20048;-70
2022/11/12 00:34:37;;;;;;;19.98;13.02;;;;;;;8.46;75.24;96145.69;5048409;28;20542;-70
2022/11/12 00:37:03;;;;;;;19.67;12.45;;;;;;;8.36;75.59;96136.75;5045919;28;20036;-70
2022/11/12 00:39:28;;;;;;;17.20;11.82;;;;;;;8.38;75.66;96134.03;5065315;28;20032;-70
2022/11/12 00:41:54;;;;;;;16.40;11.07;;;;;;;8.43;75.32;96139.84;5071554;28;20195;-70
2022/11/12 00:44:19;;;;;;;17.83;11.25;;;;;;;8.44;75.38;96137.19;5055056;28;20480;-70
2022/11/12 00:46:45;;;;;;;15.15;9.63;;;;;;;8.38;75.73;96137.47;5068743;28;20040;-70
2022/11/12 00:49:10;;;;;;;14.93;9.73;;;;;;;8.29;75.38;96140.56;5038892;28;20036;-70
2022/11/12 00:51:36;;;;;;;13.93;9.63;;;;;;;8.31;75.20;96140.50;5068331;28;20514;-70
2022/11/12 00:54:01;;;;;;;14.35;9.45;;;;;;;8.30;75.97;96131.84;5072151;28;20089;-70
2022/11/12 00:56:27;;;;;;;15.10;10.05;;;;;;;8.21;76.30;96125.41;5068236;28;20054;-70
2022/11/12 00:58:52;;;;;;;15.68;9.90;;;;;;;8.23;76.90;96126.19;5072219;28;20024;-70
2022/11/12 01:01:18;;;;;;;17.02;9.90;;;;;;;8.32;76.60;96124.84;5038574;28;20044;-70
2022/11/12 01:03:43;;;;;;;15.05;9.35;;;;;;;8.36;76.73;96120.34;5054357;28;20432;-70
2022/11/12 01:06:15;;;;;;;13.80;9.55;;;;;;;8.30;76.77;96108.56;5065180;28;20024;-70
2022/11/12 01:08:41;;;;;;;13.70;8.82;;;;;;;8.34;76.85;96106.66;5054970;28;20089;-70
2022/11/12 01:11:11;;;;;;;14.23;9.38;;;;;;;8.46;76.59;96112.03;5035905;28;20029;-70
2022/11/12 01:13:37;;;;;;;12.73;8.90;;;;;;;8.47;76.31;96105.97;5068864;28;20028;-70
2022/11/12 01:16:11;;;;;;;10.75;7.65;;;;;;;8.52;76.07;96107.44;5066711;28;20028;-70
2022/11/12 01:18:36;;;;;;;12.50;8.00;;;;;;;8.40;76.24;96103.78;5066531;28;20032;-70
2022/11/12 01:21:02;;;;;;;12.20;8.30;;;;;;;8.33;75.92;96108.41;5037281;28;20537;-70
2022/11/12 01:23:28;;;;;;;12.18;7.78;;;;;;;8.33;76.01;96113.59;5056501;28;20040;-70
2022/11/12 01:25:53;;;;;;;13.75;7.40;;;;;;;8.28;75.75;96113.00;5051469;28;20475;-70
2022/11/12 01:28:19;;;;;;;13.88;8.57;;;;;;;8.23;75.38;96120.16;5072923;28;20519;-70
2022/11/12 01:30:44;;;;;;;14.40;8.98;;;;;;;8.06;75.12;96103.78;5072505;28;20261;-70
2022/11/12 01:33:10;;;;;;;14.45;9.32;;;;;;;8.09;75.08;96114.88;5051559;28;20037;-70
2022/11/12 01:35:35;;;;;;;15.88;10.32;;;;;;;8.00;75.56;96114.44;5053139;28;21291;-70
2022/11/12 01:38:00;;;;;;;15.88;10.10;;;;;;;8.04;75.58;96108.19;5052134;28;20032;-70
2022/11/12 01:40:26;;;;;;;15.02;9.93;;;;;;;8.13;75.92;96106.88;5070409;28;20028;-70
2022/11/12 01:42:52;;;;;;;14.48;9.52;;;;;;;8.15;76.11;96102.44;5072476;28;20039;-70
2022/11/12 01:45:17;;;;;;;14.35;9.18;;;;;;;8.15;76.29;96091.25;5053341;28;20025;-70
2022/11/12 01:47:43;;;;;;;16.65;11.05;;;;;;;8.13;76.29;96098.25;5071781;28;20852;-70
2022/11/12 01:50:30;;;;;;;16.75;10.88;;;;;;;8.09;76.05;96084.66;5054199;28;20403;-70
2022/11/12 01:52:58;;;;;;;19.45;12.77;;;;;;;8.12;76.10;96099.19;5067291;28;20119;-70
2022/11/12 01:55:29;;;;;;;19.40;13.27;;;;;;;8.06;76.08;96101.19;5063478;28;20040;-70
2022/11/12 01:57:58;;;;;;;19.48;12.95;;;;;;;8.01;76.11;96100.59;5047821;28;20059;-70
2022/11/12 02:00:24;;;;;;;19.73;13.35;;;;;;;7.99;75.91;96094.66;5049960;28;20033;-70
2022/11/12 02:02:54;;;;;;;21.33;12.93;;;;;;;8.01;76.30;96084.22;5046692;28;20032;-70
2022/11/12 02:05:20;;;;;;;20.40;12.53;;;;;;;8.16;76.07;96090.34;5045955;28;20098;-70
2022/11/12 02:07:45;;;;;;;19.17;11.77;;;;;;;8.00;75.89;96079.97;5030086;28;20029;-70
2022/11/12 02:10:11;;;;;;;22.88;14.13;;;;;;;8.02;75.95;96098.81;5051576;28;20036;-70
2022/11/12 02:15:20;;;;;;;21.27;13.68;;;;;;;8.01;75.97;96098.00;5052311;28;20035;-70
2022/11/12 02:17:46;;;;;;;25.00;13.93;;;;;;;7.98;76.31;96081.81;5066131;28;20422;-70
2022/11/12 02:20:11;;;;;;;25.10;15.20;;;;;;;7.99;76.10;96102.41;5066993;28;20041;-70
2022/11/12 02:22:37;;;;;;;26.30;14.90;;;;;;;7.90;76.07;96097.72;5053908;28;20029;-70
2022/11/12 02:25:03;;;;;;;24.63;15.40;;;;;;;7.84;76.04;96095.47;5065145;28;20114;-70
2022/11/12 02:27:28;;;;;;;24.80;15.82;;;;;;;7.95;75.99;96107.84;5033740;28;20044;-70
2022/11/12 02:29:54;;;;;;;22.02;14.52;;;;;;;7.93;75.64;96113.09;5051499;28;20024;-70
2022/11/12 02:32:19;;;;;;;26.92;15.35;;;;;;;7.88;75.93;96106.47;5066301;28;20506;-70
2022/11/12 02:34:44;;;;;;;24.73;14.70;;;;;;;7.77;76.32;96096.69;5066272;28;20039;-70
2022/11/12 02:37:10;;;;;;;26.10;15.55;;;;;;;7.81;75.83;96098.22;5045724;28;20051;-70
2022/11/12 02:39:35;;;;;;;23.65;14.90;;;;;;;7.79;76.16;96092.25;5066876;28;20035;-70
2022/11/12 02:42:01;;;;;;;25.35;15.43;;;;;;;7.73;76.24;96088.25;5062692;28;20036;-70
2022/11/12 02:44:26;;;;;;;24.10;14.63;;;;;;;7.78;76.29;96095.78;5066861;28;21180;-70
2022/11/12 02:46:52;;;;;;;26.88;15.57;;;;;;;7.79;76.01;96098.28;5062158;28;20461;-70
2022/11/12 02:49:17;;;;;;;25.15;15.52;;;;;;;7.87;75.72;96099.63;5068925;28;20028;-70
2022/11/12 02:51:43;;;;;;;23.35;14.40;;;;;;;7.92;75.13;96084.72;5082908;28;20024;-70
2022/11/12 02:54:08;;;;;;;24.63;15.07;;;;;;;8.05;75.33;96101.25;5066614;28;20035;-70
2022/11/12 02:56:34;;;;;;;23.92;15.23;;;;;;;8.03;75.53;96100.53;5046938;28;20446;-69
2022/11/12 02:59:00;;;;;;;24.42;14.65;;;;;;;7.94;75.92;96094.06;5067251;28;20441;-70
2022/11/12 03:01:25;;;;;;;23.10;14.05;;;;;;;8.00;75.80;96101.50;5066400;28;20041;-70
2022/11/12 03:03:51;;;;;;;26.40;15.10;;;;;;;7.89;76.04;96101.22;5067275;28;20029;-70
2022/11/12 03:06:16;;;;;;;23.88;13.98;;;;;;;7.89;76.05;96103.00;5064054;28;20406;-70
2022/11/12 03:08:42;;;;;;;24.80;14.43;;;;;;;7.93;75.43;96097.56;5062394;28;20102;-70
2022/11/12 03:11:12;;;;;;;23.23;14.20;;;;;;;7.88;74.67;96086.59;5063231;28;20040;-70
2022/11/12 03:13:37;;;;;;;21.05;14.10;;;;;;;7.93;74.48;96089.78;5066734;28;20102;-70
2022/11/12 03:16:03;;;;;;;23.45;14.15;;;;;;;7.81;75.00;96093.03;5047196;28;20486;-70
2022/11/12 03:18:29;;;;;;;23.42;14.93;;;;;;;7.56;74.91;96075.34;5050319;28;20024;-70
2022/11/12 03:20:55;;;;;;;23.65;13.77;;;;;;;7.53;74.69;96093.59;5049840;28;20052;-70
2022/11/12 03:23:20;;;;;;;22.48;13.75;;;;;;;7.48;74.44;96082.66;5049736;28;20024;-70
2022/11/12 03:25:45;;;;;;;19.55;12.55;;;;;;;7.52;74.40;96085.03;5047141;28;20036;-70
2022/11/12 03:28:12;;;;;;;20.35;12.52;;;;;;;7.44;74.19;96083.69;5067275;28;20074;-70
2022/11/12 03:30:38;;;;;;;20.83;12.43;;;;;;;7.23;74.16;96088.22;5043340;28;20097;-70
2022/11/12 03:33:04;;;;;;;19.65;12.50;;;;;;;7.18;74.36;96080.66;5050308;28;20502;-70
2022/11/12 03:35:30;;;;;;;20.98;12.82;;;;;;;7.15;73.92;96094.56;5065275;28;20090;-70
2022/11/12 03:37:56;;;;;;;19.70;12.60;;;;;;;6.80;74.26;96080.81;5081685;28;20062;-70
2022/11/12 03:40:21;;;;;;;19.42;10.88;;;;;;;7.03;72.87;96087.44;5067917;28;20106;-70
2022/11/12 03:42:48;;;;;;;16.23;10.85;;;;;;;6.90;72.00;96094.94;5049239;28;20036;-70
2022/11/12 03:45:14;;;;;;;18.02;10.70;;;;;;;6.65;72.93;96081.50;5047209;28;20033;-70
2022/11/12 03:47:46;;;;;;;16.75;10.23;;;;;;;6.47;73.39;96094.38;5062203;28;20024;-70
2022/11/12 03:50:12;;;;;;;15.13;9.80;;;;;;;6.47;72.45;96104.72;5049711;28;20475;-70
2022/11/12 03:52:38;;;;;;;16.20;9.07;;;;;;;6.16;72.74;96104.44;5064715;28;20032;-70
2022/11/12 03:55:04;;;;;;;14.23;9.10;;;;;;;6.13;72.98;96109.72;5063725;28;20052;-70
2022/11/12 03:57:30;;;;;;;13.93;9.30;;;;;;;6.03;73.48;96104.97;5049777;28;20458;-70
2022/11/12 03:59:55;;;;;;;15.18;8.98;;;;;;;6.21;73.82;96108.50;5048888;28;20025;-70
2022/11/12 04:02:21;;;;;;;13.07;8.73;;;;;;;6.19;73.93;96110.28;5066758;28;20187;-70
2022/11/12 04:10:14;;;;;;;13.82;7.85;;;;;;;5.70;74.21;96096.09;5051065;28;20035;-70
2022/11/12 04:15:24;;;;;;;11.45;7.03;;;;;;;5.64;73.80;96101.53;5063988;28;20508;-70
2022/11/12 04:23:17;;;;;;;11.88;7.18;;;;;;;5.66;74.40;96100.56;5049961;28;20090;-70
2022/11/12 04:28:26;;;;;;;14.13;8.40;;;;;;;5.44;74.46;96084.34;5046086;28;20032;-70
2022/11/12 04:30:52;;;;;;;12.60;8.38;;;;;;;5.48;74.95;96076.41;5065207;28;20041;-70
2022/11/12 04:33:17;;;;;;;13.00;8.63;;;;;;;5.60;75.05;96085.38;5064713;28;20045;-70
2022/11/12 04:35:43;;;;;;;10.95;7.68;;;;;;;5.60;74.58;96070.72;5043745;28;20037;-70
2022/11/12 04:38:08;;;;;;;11.63;7.75;;;;;;;5.60;74.64;96059.59;5048102;28;20058;-70
2022/11/12 04:46:12;;;;;;;15.45;9.80;;;;;;;5.43;74.49;96093.78;5064376;28;20043;-70
2022/11/12 04:48:38;;;;;;;14.60;8.98;;;;;;;5.31;74.93;96084.84;5046430;28;20033;-70
2022/11/12 04:52:03;;;;;;;12.10;7.85;;;;;;;5.47;75.08;96091.94;5029334;28;20126;-69
2022/11/12 04:53:52;;;;;;;13.63;8.20;;;;;;;5.63;74.91;96087.81;5065288;28;20046;-69
2022/11/12 04:56:17;;;;;;;15.80;9.23;;;;;;;5.68;74.66;96088.44;5043357;28;20058;-70
2022/11/12 04:58:43;;;;;;;11.43;7.68;;;;;;;5.46;75.22;96097.97;5064958;28;20032;-69
2022/11/12 05:01:08;;;;;;;10.80;7.38;;;;;;;5.37;75.55;96094.88;5063397;28;20105;-70
2022/11/12 05:03:34;;;;;;;13.38;7.57;;;;;;;5.41;75.42;96092.22;5063472;28;20032;-69
2022/11/12 05:06:02;;;;;;;9.98;6.78;;;;;;;5.34;75.52;96102.75;5061979;28;20083;-70
2022/11/12 05:08:28;;;;;;;10.63;7.32;;;;;;;5.37;75.82;96119.81;5048589;28;20522;-70
2022/11/12 05:10:53;;;;;;;11.60;7.47;;;;;;;5.43;75.97;96116.97;5048477;28;20025;-70
2022/11/12 05:13:19;;;;;;;20.05;8.18;;;;;;;5.65;75.61;96126.41;5065432;28;20045;-69
2022/11/12 05:15:44;;;;;;;11.60;7.45;;;;;;;5.76;75.65;96109.56;5063134;28;20049;-70
2022/11/12 05:18:09;;;;;;;11.27;7.65;;;;;;;5.82;75.40;96124.78;5060529;28;20028;-70
2022/11/12 05:20:35;;;;;;;13.25;7.65;;;;;;;5.71;76.05;96127.00;5063566;28;20032;-70
2022/11/12 05:23:00;;;;;;;11.88;6.68;;;;;;;5.62;75.65;96129.13;5045495;28;20040;-70
2022/11/12 05:25:26;;;;;;;12.13;7.30;;;;;;;5.62;75.85;96123.97;5062770;28;20032;-70
2022/11/12 05:27:51;;;;;;;10.27;6.57;;;;;;;5.68;75.91;96128.84;5046762;28;20479;-69
2022/11/12 05:30:17;;;;;;;11.85;6.70;;;;;;;5.67;76.59;96134.91;5068412;28;20059;-70
2022/11/12 05:32:42;;;;;;;10.73;6.38;;;;;;;5.73;76.91;96119.19;5067809;28;20086;-70
2022/11/12 05:35:08;;;;;;;11.25;6.82;;;;;;;5.77;76.69;96120.75;5067523;28;20041;-69
2022/11/12 05:37:33;;;;;;;11.82;7.07;;;;;;;5.96;76.70;96128.53;5044204;28;20025;-70
2022/11/12 05:39:59;;;;;;;11.70;7.35;;;;;;;5.99;76.67;96125.81;5035353;28;20024;-69
2022/11/12 05:42:24;;;;;;;10.77;6.65;;;;;;;5.90;76.81;96115.88;5064278;28;20094;-70
2022/11/12 05:44:49;;;;;;;10.93;7.18;;;;;;;6.03;76.77;96130.78;5046535;28;20028;-70
2022/11/12 05:47:15;;;;;;;11.95;7.00;;;;;;;5.97;76.58;96128.47;5058540;28;20459;-70
2022/11/12 05:49:41;;;;;;;11.27;7.07;;;;;;;5.96;76.65;96129.38;5048759;28;20021;-70
2022/11/12 05:52:06;;;;;;;11.80;7.80;;;;;;;5.91;76.43;96138.19;5061889;28;20036;-70
2022/11/12 05:54:31;;;;;;;12.63;7.28;;;;;;;5.98;76.04;96134.47;5065707;28;20036;-70
2022/11/12 05:56:57;;;;;;;11.75;6.55;;;;;;;5.98;76.36;96126.72;5063413;28;20515;-68
2022/11/12 05:59:23;;;;;;;11.75;6.85;;;;;;;5.96;76.61;96133.69;5068675;28;20021;-69
2022/11/12 06:01:48;;;;;;;12.30;7.05;;;;;;;6.02;76.46;96139.44;5072156;28;20036;-70
2022/11/12 06:04:14;;;;;;;9.55;6.90;;;;;;;6.10;76.30;96141.69;5034016;28;20024;-70
2022/11/12 06:06:40;;;;;;;10.02;5.80;;;;;;;6.16;76.46;96150.88;5064189;28;20449;-70
2022/11/12 06:09:05;;;;;;;11.05;6.75;;;;;;;6.09;76.65;96147.72;5059933;28;20811;-71
2022/11/12 06:11:31;;;;;;;12.68;6.97;;;;;;;6.03;76.57;96151.41;5049665;28;20063;-69
2022/11/12 06:13:57;;;;;;;10.27;6.70;;;;;;;6.11;76.40;96150.25;5068627;28;20473;-69
2022/11/12 06:16:22;;;;;;;11.68;7.43;;;;;;;6.17;76.09;96152.56;5065767;28;20506;-69
2022/11/12 06:18:47;;;;;;;14.43;8.13;;;;;;;6.18;76.25;96156.78;5067887;28;20402;-69
2022/11/12 06:21:19;;;;;;;10.02;6.40;;;;;;;6.14;76.07;96158.69;5069590;28;20028;-69
2022/11/12 06:23:51;;;;;;;;;;;;;;;6.11;75.64;96161.41;5069280;28;20036;-69
2022/11/12 06:26:17;;;;;;;11.30;6.53;;;;;;;5.88;75.62;96141.75;5064997;28;20400;-69
2022/11/12 06:28:42;;;;;;;10.57;6.78;;;;;;;5.85;75.33;96136.72;5052401;28;20045;-69
2022/11/12 06:31:08;;;;;;;9.68;5.82;;;;;;;5.92;75.66;96150.19;5067978;28;20037;-71
2022/11/12 06:33:33;;;;;;;9.60;6.68;;;;;;;5.91;75.44;96154.50;5067766;28;20031;-69
2022/11/12 06:36:01;;;;;;;9.50;6.32;;;;;;;6.03;74.81;96155.75;5031926;28;20044;-69
2022/11/12 06:38:29;;;;;;;10.30;7.05;;;;;;;5.99;75.02;96149.88;5033639;28;20036;-69
2022/11/12 06:40:54;;;;;;;10.38;6.35;;;;;;;6.13;74.69;96162.19;5068051;28;20036;-69
2022/11/12 06:43:20;;;;;;;10.73;6.95;;;;;;;6.09;74.73;96152.88;5034885;28;20054;-70
2022/11/12 06:45:45;;;;;;;11.05;6.65;;;;;;;6.13;74.80;96161.31;5048932;28;20032;-69
2022/11/12 06:48:11;;;;;;;13.25;7.65;;;;;;;6.12;75.10;96162.22;5067875;28;20031;-69
2022/11/12 06:50:36;;;;;;;10.75;6.72;;;;;;;6.17;75.21;96163.72;5048089;28;20031;-69
2022/11/12 06:53:02;;;;;;;9.40;6.07;;;;;;;6.10;75.11;96136.53;5068446;28;20028;-69
2022/11/12 06:55:27;;;;;;;9.50;6.43;;;;;;;6.24;75.48;96141.91;5064638;28;20024;-68
2022/11/12 06:57:53;;;;;;;8.98;6.65;;;;;;;6.50;74.83;96160.53;5062851;28;20036;-71
2022/11/12 07:00:19;;;;;;;16.70;11.85;;;;;;;6.68;74.90;96164.00;5065502;28;20017;-69
2022/11/12 07:02:45;;;;;;;22.25;16.30;;;;;;;6.70;75.04;96165.63;5062007;28;20040;-69
2022/11/12 07:05:10;;;;;;;19.75;14.30;;;;;;;6.69;75.16;96153.63;5045716;28;20060;-72
2022/11/12 07:07:35;;;;;;;18.15;13.02;;;;;;;6.87;75.63;96161.41;5064901;28;20039;-70
2022/11/12 07:10:01;;;;;;;13.40;10.02;;;;;;;6.96;74.88;96158.38;5033079;28;20426;-70
2022/11/12 07:12:26;;;;;;;15.82;11.52;;;;;;;7.10;73.88;96161.19;5060045;28;20399;-70
2022/11/12 07:14:53;;;;;;;14.70;10.20;;;;;;;7.16;74.23;96160.88;5063775;28;20041;-70
2022/11/12 07:17:18;;;;;;;12.13;10.23;;;;;;;7.31;74.14;96161.88;5048468;28;20047;-69
2022/11/12 07:19:43;;;;;;;13.77;9.55;;;;;;;7.43;73.69;96157.03;5068053;28;20033;-73
2022/11/12 07:22:09;;;;;;;9.85;6.93;;;;;;;7.47;72.60;96154.22;5063006;28;20044;-72
2022/11/12 07:24:34;;;;;;;10.95;7.43;;;;;;;7.63;71.47;96158.63;5067133;28;20017;-71
2022/11/12 07:27:00;;;;;;;9.65;7.45;;;;;;;7.71;71.55;96151.31;5046337;28;20036;-71
2022/11/12 07:29:25;;;;;;;10.18;7.47;;;;;;;7.76;71.42;96145.00;5033328;28;20032;-71
2022/11/12 07:31:51;;;;;;;10.50;7.75;;;;;;;7.84;70.67;96139.44;5067224;28;20434;-71
2022/11/12 07:34:16;;;;;;;11.85;7.85;;;;;;;8.03;70.06;96153.09;5048422;28;20020;-71
2022/11/12 07:36:42;;;;;;;12.40;7.78;;;;;;;8.10;69.61;96157.97;5063760;28;20067;-71
2022/11/12 07:39:07;;;;;;;10.50;7.57;;;;;;;8.19;68.97;96152.28;5061271;28;20046;-71
2022/11/12 07:41:32;;;;;;;11.20;7.97;;;;;;;8.32;68.55;96155.91;5051606;28;20029;-71
2022/11/12 07:43:58;;;;;;;14.07;9.45;;;;;;;8.39;68.13;96162.50;5067834;28;20025;-71
2022/11/12 07:46:25;;;;;;;17.75;11.32;;;;;;;8.44;67.43;96151.88;5060956;28;20456;-71
2022/11/12 07:48:50;;;;;;;11.38;8.05;;;;;;;8.42;67.56;96146.78;5066169;28;20032;-71
2022/11/12 07:51:23;;;;;;;33.92;24.77;;;;;;;8.50;67.04;96161.94;5066077;28;20093;-71
2022/11/12 07:53:49;;;;;;;12.93;10.40;;;;;;;8.47;64.53;96157.75;5065695;28;20037;-71
2022/11/12 07:56:17;;;;;;;11.38;8.98;;;;;;;8.57;64.03;96152.06;5047092;28;20137;-71
2022/11/12 07:58:42;;;;;;;12.25;8.60;;;;;;;8.65;63.63;96149.91;5050137;28;20040;-71
2022/11/12 08:01:29;;;;;;;9.68;6.57;;;;;;;8.52;61.98;96159.25;5067683;28;20038;-71
2022/11/12 08:03:55;;;;;;;9.52;6.68;;;;;;;8.48;62.94;96159.41;5066159;28;20028;-71
2022/11/12 08:06:20;;;;;;;11.00;6.65;;;;;;;8.44;62.74;96162.22;5030773;28;20082;-71
2022/11/12 08:08:46;;;;;;;8.85;6.63;;;;;;;8.52;63.18;96169.59;5046106;28;20413;-71
2022/11/12 08:11:11;;;;;;;10.35;6.72;;;;;;;8.54;63.94;96154.81;5065733;28;20079;-71
2022/11/12 08:13:36;;;;;;;8.10;5.68;;;;;;;8.61;63.44;96169.09;5065917;28;20024;-71
2022/11/12 08:16:02;;;;;;;6.75;4.68;;;;;;;8.40;61.10;96160.75;5065516;28;20089;-71
2022/11/12 08:18:28;;;;;;;6.50;4.40;;;;;;;8.38;61.04;96159.94;5066139;28;20039;-70
2022/11/12 08:21:00;;;;;;;10.10;7.35;;;;;;;8.47;62.19;96170.69;5066489;28;20509;-71
2022/11/12 08:23:26;;;;;;;6.88;5.50;;;;;;;8.36;61.06;96167.81;5067319;28;20493;-71
2022/11/12 08:25:51;;;;;;;8.20;5.72;;;;;;;8.59;62.64;96178.72;5062856;28;20040;-71
2022/11/12 08:28:17;;;;;;;7.22;5.15;;;;;;;8.66;62.27;96175.75;5063016;28;20036;-70
2022/11/12 08:30:42;;;;;;;6.43;4.32;;;;;;;8.62;61.86;96168.22;5067001;28;20044;-71
2022/11/12 08:33:08;;;;;;;6.65;4.75;;;;;;;8.58;61.18;96171.84;5065125;28;20463;-71
2022/11/12 08:35:36;;;;;;;6.63;4.75;;;;;;;8.62;59.89;96181.16;5063034;28;20122;-71
2022/11/12 08:38:03;;;;;;;5.90;4.28;;;;;;;8.48;60.21;96172.34;5066449;28;20032;-71
2022/11/12 08:40:31;;;;;;;8.13;4.60;;;;;;;8.57;60.22;96178.81;5064840;28;20013;-71
2022/11/12 08:42:58;;;;;;;6.07;4.32;;;;;;;8.66;60.74;96170.56;5049548;28;20032;-71
2022/11/12 08:45:24;;;;;;;5.90;4.05;;;;;;;8.71;59.28;96178.06;5044646;28;20036;-71
2022/11/12 08:47:49;;;;;;;6.10;4.05;;;;;;;8.63;60.15;96178.47;5064150;28;20029;-71
2022/11/12 08:50:15;;;;;;;7.95;4.13;;;;;;;8.92;59.84;96184.69;5063140;28;20028;-70
2022/11/12 08:52:40;;;;;;;5.88;4.20;;;;;;;8.83;59.25;96190.38;5064318;28;20043;-71
2022/11/12 08:55:06;;;;;;;5.80;4.40;;;;;;;8.90;59.59;96181.34;5058494;28;20041;-71
2022/11/12 08:57:39;;;;;;;7.18;4.30;;;;;;;8.93;58.82;96169.97;5064631;28;20063;-71
2022/11/12 09:00:05;;;;;;;5.57;4.00;;;;;;;8.83;58.37;96174.81;5065295;28;20158;-71
2022/11/12 09:02:30;;;;;;;5.10;3.78;;;;;;;8.99;58.12;96167.03;5049455;28;20509;-71
2022/11/12 09:04:56;;;;;;;6.40;4.05;;;;;;;9.09;58.86;96172.56;5065670;28;20111;-70
2022/11/12 09:07:21;;;;;;;5.38;4.03;;;;;;;9.04;57.91;96169.38;5068569;28;20398;-71
2022/11/12 09:09:47;;;;;;;5.55;3.88;;;;;;;8.92;57.31;96169.13;5069240;28;20020;-71
2022/11/12 09:12:17;;;;;;;6.72;3.70;;;;;;;8.91;57.09;96162.28;5069748;28;20041;-70
2022/11/12 09:14:43;;;;;;;8.45;4.90;;;;;;;9.08;57.24;96152.72;5067487;28;20036;-71
2022/11/12 09:17:08;;;;;;;6.15;3.70;;;;;;;9.18;57.25;96170.28;5070798;28;20114;-71
2022/11/12 09:19:34;;;;;;;5.45;4.10;;;;;;;9.34;57.88;96172.03;5070947;28;20032;-71
2022/11/12 09:21:59;;;;;;;5.28;3.67;;;;;;;9.27;57.46;96170.69;5070459;28;20039;-71
2022/11/12 09:24:24;;;;;;;5.70;3.95;;;;;;;9.15;56.48;96175.63;5071301;28;20036;-71
2022/11/12 09:26:53;;;;;;;4.97;3.50;;;;;;;9.13;57.75;96172.28;5054209;28;20032;-71
2022/11/12 09:29:18;;;;;;;5.93;3.53;;;;;;;9.23;57.83;96171.78;5052513;28;20025;-68
2022/11/12 09:31:44;;;;;;;5.53;3.65;;;;;;;9.32;58.11;96166.91;5034594;28;20060;-70
2022/11/12 09:34:09;;;;;;;4.85;3.03;;;;;;;9.18;57.44;96179.81;5055313;28;20571;-69
2022/11/12 09:36:35;;;;;;;4.32;3.35;;;;;;;8.95;58.50;96171.56;5060067;28;20040;-70
2022/11/12 09:39:00;;;;;;;5.50;3.35;;;;;;;8.94;58.07;96169.03;5061239;28;20020;-70
2022/11/12 09:41:39;;;;;;;4.47;3.40;;;;;;;9.00;58.07;96180.81;5061608;28;20075;-70
2022/11/12 09:44:12;;;;;;;5.30;3.13;;;;;;;9.00;57.64;96166.13;5049810;28;20588;-70
2022/11/12 09:46:44;;;;;;;4.43;2.75;;;;;;;9.00;57.83;96168.72;5048247;28;20514;-70
2022/11/12 09:49:11;;;;;;;3.78;2.85;;;;;;;9.01;56.89;96172.97;5045186;28;20035;-69
2022/11/12 09:52:02;;;;;;;3.85;2.55;;;;;;;8.88;56.23;96177.16;5061499;28;20029;-70
2022/11/12 09:54:30;;;;;;;5.22;2.58;;;;;;;8.77;56.44;96169.13;5061065;28;20044;-69
2022/11/12 09:56:55;;;;;;;4.13;2.60;;;;;;;8.97;57.32;96166.31;5061678;28;20557;-70
2022/11/12 09:59:22;;;;;;;4.93;3.30;;;;;;;9.05;57.84;96166.69;5057169;28;20032;-70
2022/11/12 10:01:47;;;;;;;5.78;3.83;;;;;;;9.02;58.77;96169.44;5045402;28;20108;-70
2022/11/12 10:04:52;;;;;;;5.50;3.85;;;;;;;9.28;59.40;96169.78;5056516;28;20474;-69
2022/11/12 10:07:35;;;;;;;4.82;3.70;;;;;;;9.21;60.13;96165.84;5043720;28;20048;-70
2022/11/12 10:10:21;;;;;;;5.53;3.50;;;;;;;9.28;58.60;96170.59;5058001;28;20033;-70
2022/11/12 10:13:13;;;;;;;6.65;3.80;;;;;;;9.47;59.81;96174.75;5037679;28;20044;-69
2022/11/12 10:18:53;;;;;;;4.88;3.53;;;;;;;9.51;58.60;96171.06;5069235;28;20039;-70
2022/11/12 10:21:50;;;;;;;6.35;3.65;;;;;;;9.09;59.85;96175.16;5066083;28;20039;-71
2022/11/12 10:24:15;;;;;;;7.38;4.82;;;;;;;9.36;59.90;96178.81;5063012;28;20555;-71
2022/11/12 10:26:41;;;;;;;12.65;5.93;;;;;;;9.53;59.74;96175.25;5061341;28;20036;-71
2022/11/12 10:29:40;;;;;;;10.68;6.15;;;;;;;9.54;59.38;96171.72;5060878;28;20439;-71
2022/11/12 10:32:09;;;;;;;9.13;4.80;;;;;;;9.60;59.65;96168.75;5008425;28;20497;-70
2022/11/12 10:34:35;;;;;;;6.50;4.50;;;;;;;9.58;59.98;96165.44;5035519;28;20029;-70
2022/11/12 10:37:03;;;;;;;5.93;4.78;;;;;;;9.68;59.51;96168.34;5065715;28;20106;-70
2022/11/12 10:39:36;;;;;;;6.85;4.20;;;;;;;9.65;59.39;96163.31;5070855;28;20517;-71
2022/11/12 10:42:07;;;;;;;6.18;4.15;;;;;;;9.59;59.48;96161.09;5047929;28;20047;-70
2022/11/12 10:44:32;;;;;;;4.63;3.45;;;;;;;9.43;58.82;96175.84;5034657;28;20055;-70
2022/11/12 10:47:17;;;;;;;5.13;3.33;;;;;;;9.56;59.65;96179.44;5053386;28;20071;-71
2022/11/12 10:49:43;;;;;;;4.80;3.20;;;;;;;9.40;60.04;96169.91;5071374;28;20032;-72
2022/11/12 10:52:22;;;;;;;6.38;3.50;;;;;;;9.41;59.86;96160.38;5071455;28;20058;-71
2022/11/12 10:54:47;;;;;;;14.05;5.57;;;;;;;9.53;59.56;96166.63;5071061;28;20475;-70
2022/11/12 10:57:23;;;;;;;20.92;7.82;;;;;;;9.43;59.84;96174.09;5071280;28;20039;-70
2022/11/12 11:00:14;;;;;;;17.15;7.68;;;;;;;9.55;58.51;96167.34;5071029;28;20033;-70
2022/11/12 11:02:46;;;;;;;8.27;4.68;;;;;;;9.45;58.88;96169.66;5053907;28;20101;-70
2022/11/12 11:05:34;;;;;;;7.13;4.40;;;;;;;9.59;59.53;96172.28;5068952;28;20029;-69
2022/11/12 11:08:00;;;;;;;4.03;2.60;;;;;;;9.40;58.17;96175.09;5052548;28;20434;-70
2022/11/12 11:10:26;;;;;;;3.58;2.40;;;;;;;9.23;59.39;96164.84;5052076;28;20114;-69
2022/11/12 11:13:19;;;;;;;6.07;3.45;;;;;;;9.48;59.19;96160.88;5070027;28;20036;-69
2022/11/12 11:16:04;;;;;;;4.75;2.53;;;;;;;9.39;58.89;96155.28;5070553;28;20129;-69
2022/11/12 11:18:30;;;;;;;4.40;3.22;;;;;;;9.39;59.48;96152.69;5070648;28;20405;-70
2022/11/12 11:21:08;;;;;;;4.95;3.50;;;;;;;9.50;59.14;96153.81;5070758;28;20044;-69
2022/11/12 11:23:39;;;;;;;5.05;3.47;;;;;;;9.49;59.25;96152.16;5071436;28;20029;-69
2022/11/12 11:26:23;;;;;;;;;;;;;;;9.72;58.58;96162.06;5054869;28;20514;-69
2022/11/12 11:28:57;;;;;;;3.08;2.42;;;;;;;9.46;57.99;96163.53;5071948;28;19977;-69
2022/11/12 11:31:53;;;;;;;3.35;2.42;;;;;;;9.45;57.88;96155.84;5071529;28;20061;-69
2022/11/12 11:34:43;;;;;;;3.97;2.35;;;;;;;9.12;58.03;96160.25;5071720;28;20024;-69
2022/11/12 11:37:21;;;;;;;3.80;2.40;;;;;;;9.23;58.59;96164.00;5071964;28;20048;-69
2022/11/12 11:39:50;;;;;;;4.28;2.45;;;;;;;9.11;58.24;96156.00;5070652;28;20031;-69
2022/11/12 11:42:33;;;;;;;3.42;2.40;;;;;;;9.24;58.98;96158.72;5070327;28;20040;-69
2022/11/12 11:44:58;;;;;;;4.47;2.53;;;;;;;9.25;59.17;96159.56;5070374;28;20095;-69
2022/11/12 11:47:33;;;;;;;3.53;2.35;;;;;;;9.29;59.70;96151.53;5071889;28;20471;-69
2022/11/12 11:50:05;;;;;;;3.40;2.30;;;;;;;9.28;58.82;96159.41;5070216;28;20027;-69
2022/11/12 11:52:52;;;;;;;3.38;2.08;;;;;;;9.26;58.53;96154.28;5070407;28;20090;-69
2022/11/12 11:55:48;;;;;;;2.88;2.30;;;;;;;9.15;58.27;96149.72;5070332;28;20034;-69
2022/11/12 11:58:32;;;;;;;3.25;2.10;;;;;;;9.43;58.83;96153.34;5071155;28;20048;-69
2022/11/12 12:01:19;;;;;;;4.03;2.85;;;;;;;9.59;59.20;96151.53;5071325;28;20043;-69
2022/11/12 12:04:30;;;;;;;5.32;2.58;;;;;;;9.63;58.23;96149.59;5037179;28;20531;-70
2022/11/12 12:06:58;;;;;;;3.50;2.55;;;;;;;9.65;57.86;96145.16;5069200;28;20043;-69